Peacehaven, United Kingdom
Current Conditions -  °F | °C
As of 6:50 PM on Thursday 30 Oct 2014 (Local Time) from EGKA Reporting Station
Clear Clear  
Wind Chill: 15°   Ceiling: Unl
Heat Index: 15°   Visibility: 6mi
Dew Point: 14°   Wind: 7mph
Humidity: 94%   Direction: 110°ESE
Pressure: 30.06"   Gusts: NA
Location:  50.79°N, 0.02°W
Report Text: EGKA 301850Z 11006KT 9999 NSC 15/14 Q1018
Loading
Personal Weather Stations






























Interactive Weather Map
Tropical Storm Tracking
New forecast layout! Learn more

10-Day Weather Forecast

Advertisements
Track Severe Weather on mobile